createdAt,value
2022-09-28T00:01:22.997Z,17.42
2022-09-28T00:03:52.251Z,17.45
2022-09-28T00:06:21.966Z,17.46
2022-09-28T00:09:08.766Z,17.46
2022-09-28T00:11:36.717Z,17.46
2022-09-28T00:14:03.759Z,17.43
2022-09-28T00:16:36.084Z,17.41
2022-09-28T00:19:04.857Z,17.36
2022-09-28T00:21:33.166Z,17.35
2022-09-28T00:24:15.139Z,17.31
2022-09-28T00:26:54.983Z,17.28
2022-09-28T00:29:41.492Z,17.25
2022-09-28T00:32:11.824Z,17.24
2022-09-28T00:34:43.453Z,17.25
2022-09-28T00:37:21.204Z,17.27
2022-09-28T00:39:48.701Z,17.29
2022-09-28T00:42:18.642Z,17.28
2022-09-28T00:47:48.445Z,17.29
2022-09-28T00:50:42.133Z,17.28
2022-09-28T00:53:20.441Z,17.27
2022-09-28T00:55:51.202Z,17.24
2022-09-28T00:58:40.606Z,17.24
2022-09-28T01:01:07.642Z,17.25
2022-09-28T01:03:36.628Z,17.24
2022-09-28T01:08:51.243Z,17.23
2022-09-28T01:11:19.245Z,17.21
2022-09-28T01:13:46.958Z,17.20
2022-09-28T01:16:52.588Z,17.23
2022-09-28T01:19:49.262Z,17.22
2022-09-28T01:22:35.413Z,17.21
2022-09-28T01:25:12.557Z,17.23
2022-09-28T01:27:52.294Z,17.23
2022-09-28T01:30:20.485Z,17.23
2022-09-28T01:33:03.445Z,17.24
2022-09-28T01:35:34.733Z,17.26
2022-09-28T01:38:10.534Z,17.27
2022-09-28T01:40:37.718Z,17.23
2022-09-28T01:43:08.297Z,17.23
2022-09-28T01:45:49.184Z,17.22
2022-09-28T01:48:21.622Z,17.22
2022-09-28T01:50:57.203Z,17.24
2022-09-28T01:53:37.612Z,17.22
2022-09-28T01:56:12.700Z,17.21
2022-09-28T01:58:53.216Z,17.22
2022-09-28T02:01:50.778Z,17.22
2022-09-28T02:04:31.952Z,17.23
2022-09-28T02:07:21.752Z,17.25
2022-09-28T02:09:58.740Z,17.23
2022-09-28T02:12:31.492Z,17.19
2022-09-28T02:15:12.663Z,17.20
2022-09-28T02:17:39.284Z,17.21
2022-09-28T02:20:07.498Z,17.22
2022-09-28T02:22:40.638Z,17.22
2022-09-28T02:25:24.613Z,17.21
2022-09-28T02:28:02.493Z,17.21
2022-09-28T02:30:34.944Z,17.24
2022-09-28T02:33:12.513Z,17.24
2022-09-28T02:35:39.774Z,17.23
2022-09-28T02:38:06.316Z,17.21
2022-09-28T02:40:35.329Z,17.21
2022-09-28T02:43:10.596Z,17.20
2022-09-28T02:45:56.544Z,17.20
2022-09-28T02:48:55.857Z,17.18
2022-09-28T02:51:34.428Z,17.17
2022-09-28T02:54:18.939Z,17.15
2022-09-28T02:56:51.442Z,17.15
2022-09-28T02:59:20.794Z,17.15
2022-09-28T03:01:53.056Z,17.14
2022-09-28T03:04:48.180Z,17.13
2022-09-28T03:07:40.985Z,17.13
2022-09-28T03:10:25.798Z,17.13
2022-09-28T03:12:54.390Z,17.12
2022-09-28T03:15:29.495Z,17.11
2022-09-28T03:17:58.339Z,17.12
2022-09-28T03:20:26.692Z,17.13
2022-09-28T03:23:19.804Z,17.14
2022-09-28T03:25:40.790Z,17.15
2022-09-28T03:28:07.724Z,17.17
2022-09-28T03:30:35.748Z,17.20
2022-09-28T03:33:03.264Z,17.21
2022-09-28T03:35:29.929Z,17.21
2022-09-28T03:37:56.980Z,17.20
2022-09-28T03:40:23.639Z,17.22
2022-09-28T03:42:55.738Z,17.24
2022-09-28T03:45:22.759Z,17.23
2022-09-28T03:47:49.328Z,17.24
2022-09-28T03:50:21.182Z,17.23
2022-09-28T03:52:47.833Z,17.23
2022-09-28T03:55:14.438Z,17.21
2022-09-28T03:57:43.037Z,17.19
2022-09-28T04:00:16.371Z,17.18
2022-09-28T04:02:44.290Z,17.20
2022-09-28T04:05:10.850Z,17.17
2022-09-28T04:07:45.081Z,17.15
2022-09-28T04:10:12.886Z,17.15
2022-09-28T04:12:39.404Z,17.14
2022-09-28T04:15:09.845Z,17.08
2022-09-28T04:17:39.959Z,17.07
2022-09-28T04:20:07.483Z,17.07
2022-09-28T04:22:34.082Z,17.07
2022-09-28T04:25:00.634Z,17.05
2022-09-28T04:27:45.599Z,17.03
2022-09-28T04:30:12.283Z,17.01
2022-09-28T04:32:38.922Z,17.01
2022-09-28T04:35:05.943Z,17.01
2022-09-28T04:37:32.578Z,17.02
2022-09-28T04:39:59.410Z,17.03
2022-09-28T04:42:25.947Z,17.00
2022-09-28T04:44:52.518Z,17.00
2022-09-28T04:47:19.053Z,17.00
2022-09-28T04:49:45.573Z,17.00
2022-09-28T04:52:17.830Z,17.02
2022-09-28T04:54:44.947Z,17.03
2022-09-28T04:57:11.467Z,17.02
2022-09-28T04:59:37.987Z,16.99
2022-09-28T05:02:04.897Z,16.96
2022-09-28T05:04:31.493Z,16.93
2022-09-28T05:06:58.080Z,16.92
2022-09-28T05:09:24.633Z,16.89
2022-09-28T05:11:53.074Z,16.91
2022-09-28T05:14:22.057Z,16.93
2022-09-28T05:16:49.284Z,16.95
2022-09-28T05:19:15.967Z,16.96
2022-09-28T05:21:46.213Z,17.01
2022-09-28T05:24:12.909Z,17.04
2022-09-28T05:26:39.433Z,17.04
2022-09-28T05:29:06.101Z,17.06
2022-09-28T05:31:32.797Z,17.08
2022-09-28T05:33:59.454Z,17.12
2022-09-28T05:36:30.261Z,17.15
2022-09-28T05:38:56.890Z,17.20
2022-09-28T05:41:23.416Z,17.26
2022-09-28T05:43:51.989Z,17.30
2022-09-28T05:46:20.178Z,17.36
2022-09-28T05:48:46.774Z,17.40
2022-09-28T05:51:13.273Z,17.42
2022-09-28T05:53:39.779Z,17.45
2022-09-28T05:56:06.692Z,17.48
2022-09-28T05:58:33.267Z,17.51
2022-09-28T06:00:59.855Z,17.55
2022-09-28T06:03:27.045Z,17.57
2022-09-28T06:05:53.589Z,17.57
2022-09-28T06:08:20.189Z,17.55
2022-09-28T06:10:46.870Z,17.54
2022-09-28T06:13:13.541Z,17.52
2022-09-28T06:15:42.095Z,17.50
2022-09-28T06:18:16.574Z,17.50
2022-09-28T06:20:43.354Z,17.46
2022-09-28T06:23:10.870Z,17.46
2022-09-28T06:25:38.674Z,17.46
2022-09-28T06:28:11.222Z,17.46
2022-09-28T06:30:39.130Z,17.47
2022-09-28T06:33:08.305Z,17.48
2022-09-28T06:35:35.220Z,17.46
2022-09-28T06:38:02.049Z,17.47
2022-09-28T06:40:29.073Z,17.51
2022-09-28T06:43:09.905Z,17.56
2022-09-28T06:45:37.342Z,17.60
2022-09-28T06:48:04.714Z,17.67
2022-09-28T06:50:37.475Z,17.73
2022-09-28T06:53:06.785Z,17.80
2022-09-28T06:55:33.562Z,17.84
2022-09-28T06:58:02.225Z,17.87
2022-09-28T07:00:31.178Z,17.89
2022-09-28T07:02:57.920Z,17.89
2022-09-28T07:05:27.440Z,17.89
2022-09-28T07:07:57.605Z,17.89
2022-09-28T07:10:28.467Z,17.91
2022-09-28T07:12:56.257Z,17.96
2022-09-28T07:15:23.744Z,18.05
2022-09-28T07:18:00.350Z,18.17
2022-09-28T07:20:29.651Z,18.33
2022-09-28T07:23:03.047Z,18.41
2022-09-28T07:25:40.906Z,18.51
2022-09-28T07:28:09.791Z,18.59
2022-09-28T07:30:36.432Z,18.67
2022-09-28T07:33:04.673Z,18.73
2022-09-28T07:35:32.049Z,18.79
2022-09-28T07:38:00.448Z,18.90
2022-09-28T07:40:48.560Z,18.96
2022-09-28T07:43:20.519Z,19.04
2022-09-28T07:45:48.235Z,19.14
2022-09-28T07:48:18.693Z,19.24
2022-09-28T07:50:50.252Z,19.35
2022-09-28T07:53:16.784Z,19.43
2022-09-28T07:55:43.298Z,19.52
2022-09-28T07:58:09.808Z,19.56
2022-09-28T08:00:36.308Z,19.61
2022-09-28T08:03:02.973Z,19.66
2022-09-28T08:05:31.268Z,19.73
2022-09-28T08:07:59.667Z,19.81
2022-09-28T08:10:26.958Z,19.90
2022-09-28T08:13:01.962Z,19.95
2022-09-28T08:15:37.080Z,19.99
2022-09-28T08:18:07.101Z,20.01
2022-09-28T08:20:52.611Z,20.05
2022-09-28T08:23:20.398Z,20.08
2022-09-28T08:25:52.588Z,20.12
2022-09-28T08:28:19.441Z,20.16
2022-09-28T08:30:47.312Z,20.20
2022-09-28T08:33:15.358Z,20.26
2022-09-28T08:35:42.144Z,20.31
2022-09-28T08:38:09.463Z,20.35
2022-09-28T08:40:45.512Z,20.47
2022-09-28T08:43:23.986Z,20.66
2022-09-28T08:45:51.183Z,20.81
2022-09-28T08:49:06.597Z,20.93
2022-09-28T08:51:44.304Z,20.97
2022-09-28T08:54:48.855Z,21.02
2022-09-28T08:57:26.072Z,21.22
2022-09-28T08:59:55.745Z,21.46
2022-09-28T09:02:27.437Z,21.68
2022-09-28T09:04:54.523Z,21.88
2022-09-28T09:07:42.008Z,22.06
2022-09-28T09:10:08.761Z,22.25
2022-09-28T09:12:38.267Z,22.35
2022-09-28T09:15:20.453Z,22.55
2022-09-28T09:18:05.670Z,22.78
2022-09-28T09:20:47.522Z,22.93
2022-09-28T09:23:20.932Z,23.02
2022-09-28T09:25:50.845Z,23.10
2022-09-28T09:28:36.741Z,23.08
2022-09-28T09:31:22.968Z,22.88
2022-09-28T09:34:11.456Z,22.61
2022-09-28T09:37:16.815Z,22.58
2022-09-28T09:39:58.659Z,22.69
2022-09-28T09:43:01.036Z,22.67
2022-09-28T09:45:46.244Z,22.58
2022-09-28T09:48:21.693Z,22.43
2022-09-28T09:50:54.577Z,22.23
2022-09-28T09:53:30.771Z,22.11
2022-09-28T09:56:06.430Z,22.05
2022-09-28T09:58:38.921Z,22.00
2022-09-28T10:01:13.089Z,21.96
2022-09-28T10:03:44.073Z,21.99
2022-09-28T10:06:16.801Z,22.16
2022-09-28T10:08:50.461Z,22.40
2022-09-28T10:11:40.151Z,22.55
2022-09-28T10:14:08.232Z,22.75
2022-09-28T10:16:35.624Z,22.81
2022-09-28T10:19:02.584Z,22.79
2022-09-28T10:21:29.465Z,22.74
2022-09-28T10:23:58.274Z,22.72
2022-09-28T10:26:33.836Z,22.67
2022-09-28T10:29:03.635Z,22.73
2022-09-28T10:31:43.597Z,22.77
2022-09-28T10:34:17.278Z,22.82
2022-09-28T10:36:48.652Z,22.85
2022-09-28T10:39:27.973Z,22.93
2022-09-28T10:41:55.209Z,23.05
2022-09-28T10:44:23.080Z,23.20
2022-09-28T10:46:58.776Z,23.22
2022-09-28T10:49:27.129Z,23.21
2022-09-28T10:51:57.796Z,23.14
2022-09-28T10:54:28.371Z,23.06
2022-09-28T10:56:58.740Z,22.94
2022-09-28T10:59:31.391Z,22.86
2022-09-28T11:02:00.031Z,22.82
2022-09-28T11:04:41.499Z,22.76
2022-09-28T11:07:17.898Z,22.74
2022-09-28T11:09:48.771Z,22.69
2022-09-28T11:12:28.420Z,22.68
2022-09-28T11:15:03.994Z,22.67
2022-09-28T11:17:38.869Z,22.65
2022-09-28T11:20:28.259Z,22.59
2022-09-28T11:22:57.208Z,22.57
2022-09-28T11:25:24.979Z,22.61
2022-09-28T11:27:51.485Z,22.65
2022-09-28T11:30:31.645Z,22.66
2022-09-28T11:33:19.150Z,22.62
2022-09-28T11:35:56.369Z,22.55
2022-09-28T11:38:47.495Z,22.47
2022-09-28T11:41:26.798Z,22.50
2022-09-28T11:44:18.421Z,22.54
2022-09-28T11:46:54.230Z,22.48
2022-09-28T11:49:21.578Z,22.48
2022-09-28T11:51:50.678Z,22.54
2022-09-28T11:54:56.832Z,22.57
2022-09-28T11:57:31.571Z,22.58
2022-09-28T12:00:02.915Z,22.56
2022-09-28T12:02:34.838Z,22.56
2022-09-28T12:05:15.955Z,22.60
2022-09-28T12:07:50.485Z,22.62
2022-09-28T12:10:26.401Z,22.55
2022-09-28T12:13:04.213Z,22.50
2022-09-28T12:16:06.853Z,22.46
2022-09-28T12:19:04.445Z,22.42
2022-09-28T12:21:37.147Z,22.36
2022-09-28T12:24:22.943Z,22.35
2022-09-28T12:26:58.614Z,22.36
2022-09-28T12:29:50.571Z,22.40
2022-09-28T12:32:17.051Z,22.40
2022-09-28T12:34:44.118Z,22.40
2022-09-28T12:37:44.586Z,22.38
2022-09-28T12:40:55.633Z,22.33
2022-09-28T12:43:26.425Z,22.33
2022-09-28T12:46:18.462Z,22.35
2022-09-28T12:48:52.965Z,22.34
2022-09-28T12:51:53.746Z,22.36
2022-09-28T12:54:36.207Z,22.40
2022-09-28T12:57:38.060Z,22.43
2022-09-28T13:00:05.716Z,22.41
2022-09-28T13:02:53.533Z,22.40
2022-09-28T13:05:38.651Z,22.42
2022-09-28T13:08:09.253Z,22.44
2022-09-28T13:11:16.434Z,22.40
2022-09-28T13:14:04.867Z,22.46
2022-09-28T13:16:46.108Z,22.52
2022-09-28T13:19:44.891Z,22.55
2022-09-28T13:22:49.940Z,22.53
2022-09-28T13:25:19.378Z,22.38
2022-09-28T13:27:53.738Z,22.26
2022-09-28T13:30:20.239Z,22.10
2022-09-28T13:32:47.668Z,22.01
2022-09-28T13:35:15.421Z,21.93
2022-09-28T13:37:42.009Z,21.88
2022-09-28T13:40:08.704Z,21.83
2022-09-28T13:42:44.530Z,21.80
2022-09-28T13:45:22.952Z,21.80
2022-09-28T13:47:55.581Z,21.79
2022-09-28T13:50:43.277Z,21.76
2022-09-28T13:53:22.089Z,21.77
2022-09-28T13:56:24.515Z,21.76
2022-09-28T13:58:56.426Z,21.80
2022-09-28T14:01:30.650Z,21.79
2022-09-28T14:04:00.194Z,21.75
2022-09-28T14:06:31.913Z,21.72
2022-09-28T14:08:58.414Z,21.73
2022-09-28T14:11:42.266Z,21.66
2022-09-28T14:14:08.776Z,21.67
2022-09-28T14:16:36.916Z,21.67
2022-09-28T14:19:09.692Z,21.64
2022-09-28T14:21:58.173Z,21.58
2022-09-28T14:25:00.015Z,21.55
2022-09-28T14:27:32.578Z,21.54
2022-09-28T14:30:21.465Z,21.53
2022-09-28T14:33:22.741Z,21.53
2022-09-28T14:36:04.027Z,21.54
2022-09-28T14:39:05.003Z,21.56
2022-09-28T14:41:36.732Z,21.53
2022-09-28T14:44:11.716Z,21.53
2022-09-28T14:46:44.428Z,21.52
2022-09-28T14:49:17.467Z,21.52
2022-09-28T14:51:45.717Z,21.52
2022-09-28T14:54:12.190Z,21.51
2022-09-28T14:56:58.922Z,21.46
2022-09-28T14:59:30.717Z,21.43
2022-09-28T15:02:10.941Z,21.42
2022-09-28T15:04:41.222Z,21.36
2022-09-28T15:07:29.337Z,21.29
2022-09-28T15:09:59.014Z,21.23
2022-09-28T15:12:32.046Z,21.18
2022-09-28T15:15:02.366Z,21.16
2022-09-28T15:17:40.116Z,21.18
2022-09-28T15:20:25.879Z,21.19
2022-09-28T15:22:57.378Z,21.17
2022-09-28T15:25:32.110Z,21.17
2022-09-28T15:28:02.387Z,21.10
2022-09-28T15:30:36.787Z,21.11
2022-09-28T15:33:23.416Z,21.13
2022-09-28T15:36:01.946Z,21.14
2022-09-28T15:38:29.179Z,21.14
2022-09-28T15:40:56.115Z,21.18
2022-09-28T15:43:30.250Z,21.20
2022-09-28T15:46:02.624Z,21.21
2022-09-28T15:48:52.790Z,21.23
2022-09-28T15:51:21.432Z,21.24
2022-09-28T15:54:02.903Z,21.24
2022-09-28T15:56:29.914Z,21.19
2022-09-28T15:59:32.477Z,21.15
2022-09-28T16:02:25.652Z,21.07
2022-09-28T16:04:56.860Z,21.01
2022-09-28T16:07:27.899Z,20.96
2022-09-28T16:10:01.140Z,20.93
2022-09-28T16:12:49.117Z,20.88
2022-09-28T16:15:28.604Z,20.87
2022-09-28T16:18:00.803Z,20.82
2022-09-28T16:20:32.067Z,20.83
2022-09-28T16:23:07.097Z,20.85
2022-09-28T16:25:37.402Z,20.82
2022-09-28T16:28:05.591Z,20.77
2022-09-28T16:30:33.531Z,20.77
2022-09-28T16:33:05.707Z,20.75
2022-09-28T16:35:50.241Z,20.74
2022-09-28T16:38:19.477Z,20.72
2022-09-28T16:40:51.712Z,20.71
2022-09-28T16:43:31.658Z,20.71
2022-09-28T16:46:00.494Z,20.69
2022-09-28T16:48:31.202Z,20.70
2022-09-28T16:50:58.462Z,20.70
2022-09-28T16:53:44.191Z,20.68
2022-09-28T16:56:11.849Z,20.66
2022-09-28T16:58:39.059Z,20.65
2022-09-28T17:01:09.560Z,20.63
2022-09-28T17:03:36.259Z,20.60
2022-09-28T17:06:04.600Z,20.58
2022-09-28T17:08:31.886Z,20.56
2022-09-28T17:11:22.849Z,20.53
2022-09-28T17:13:48.757Z,20.50
2022-09-28T17:16:36.711Z,20.50
2022-09-28T17:19:23.404Z,20.47
2022-09-28T17:21:51.247Z,20.43
2022-09-28T17:24:18.836Z,20.43
2022-09-28T17:26:47.915Z,20.44
2022-09-28T17:29:16.211Z,20.43
2022-09-28T17:31:43.331Z,20.42
2022-09-28T17:34:12.343Z,20.42
2022-09-28T17:36:41.223Z,20.39
2022-09-28T17:39:15.737Z,20.39
2022-09-28T17:41:43.240Z,20.38
2022-09-28T17:44:12.055Z,20.38
2022-09-28T17:46:50.347Z,20.38
2022-09-28T17:49:20.640Z,20.37
2022-09-28T17:51:47.387Z,20.37
2022-09-28T17:54:16.782Z,20.38
2022-09-28T17:56:47.666Z,20.38
2022-09-28T17:59:17.738Z,20.38
2022-09-28T18:01:44.549Z,20.39
2022-09-28T18:04:27.894Z,20.39
2022-09-28T18:07:01.725Z,20.38
2022-09-28T18:09:29.304Z,20.37
2022-09-28T18:12:01.450Z,20.36
2022-09-28T18:14:29.942Z,20.35
2022-09-28T18:16:57.337Z,20.34
2022-09-28T18:19:28.570Z,20.35
2022-09-28T18:21:58.223Z,20.35
2022-09-28T18:24:25.344Z,20.35
2022-09-28T18:26:53.994Z,20.34
2022-09-28T18:29:21.504Z,20.30
2022-09-28T18:31:49.569Z,20.25
2022-09-28T18:34:18.192Z,20.18
2022-09-28T18:36:45.698Z,20.06
2022-09-28T18:39:13.929Z,19.96
2022-09-28T18:41:42.378Z,19.85
2022-09-28T18:44:10.146Z,19.80
2022-09-28T18:46:38.746Z,19.75
2022-09-28T18:49:07.141Z,19.70
2022-09-28T18:51:33.930Z,19.70
2022-09-28T18:54:08.961Z,19.65
2022-09-28T18:56:39.884Z,19.58
2022-09-28T18:59:11.972Z,19.51
2022-09-28T19:01:39.342Z,19.47
2022-09-28T19:04:10.239Z,19.41
2022-09-28T19:06:40.725Z,19.35
2022-09-28T19:09:09.503Z,19.33
2022-09-28T19:11:36.383Z,19.32
2022-09-28T19:14:04.205Z,19.32
2022-09-28T19:16:31.344Z,19.30
2022-09-28T19:18:59.011Z,19.34
2022-09-28T19:21:27.444Z,19.35
2022-09-28T19:23:56.198Z,19.36
2022-09-28T19:26:27.536Z,19.32
2022-09-28T19:28:57.155Z,19.29
2022-09-28T19:31:26.723Z,19.26
2022-09-28T19:33:55.939Z,19.24
2022-09-28T19:36:25.618Z,19.24
2022-09-28T19:38:52.879Z,19.23
2022-09-28T19:41:43.937Z,19.22
2022-09-28T19:44:27.270Z,19.21
2022-09-28T19:47:10.393Z,19.22
2022-09-28T19:49:41.101Z,19.23
2022-09-28T19:52:16.784Z,19.23
2022-09-28T19:54:49.468Z,19.22
2022-09-28T19:57:21.361Z,19.20
2022-09-28T19:59:52.384Z,19.19
2022-09-28T20:02:20.905Z,19.15
2022-09-28T20:04:49.855Z,19.09
2022-09-28T20:07:17.473Z,19.00
2022-09-28T20:09:44.494Z,18.92
2022-09-28T20:12:12.140Z,18.88
2022-09-28T20:14:40.389Z,18.82
2022-09-28T20:17:10.032Z,18.78
2022-09-28T20:19:38.352Z,18.74
2022-09-28T20:22:06.143Z,18.67
2022-09-28T20:24:35.553Z,18.59
2022-09-28T20:27:02.815Z,18.53
2022-09-28T20:29:34.836Z,18.46
2022-09-28T20:32:05.599Z,18.40
2022-09-28T20:34:34.017Z,18.37
2022-09-28T20:37:04.083Z,18.36
2022-09-28T20:39:31.298Z,18.35
2022-09-28T20:41:58.660Z,18.33
2022-09-28T20:44:25.214Z,18.33
2022-09-28T20:46:52.732Z,18.35
2022-09-28T20:49:20.437Z,18.38
2022-09-28T20:51:48.194Z,18.36
2022-09-28T20:54:15.267Z,18.38
2022-09-28T20:56:42.556Z,18.38
2022-09-28T20:59:12.881Z,18.36
2022-09-28T21:01:44.281Z,18.33
2022-09-28T21:04:10.999Z,18.32
2022-09-28T21:06:40.495Z,18.25
2022-09-28T21:09:10.818Z,18.23
2022-09-28T21:11:40.449Z,18.19
2022-09-28T21:14:10.401Z,18.19
2022-09-28T21:16:37.809Z,18.16
2022-09-28T21:19:05.042Z,18.18
2022-09-28T21:21:32.825Z,18.16
2022-09-28T21:24:01.772Z,18.14
2022-09-28T21:26:31.246Z,18.11
2022-09-28T21:29:08.066Z,18.08
2022-09-28T21:31:39.765Z,18.01
2022-09-28T21:34:08.409Z,17.94
2022-09-28T21:36:37.451Z,17.94
2022-09-28T21:39:09.562Z,17.90
2022-09-28T21:41:38.620Z,17.85
2022-09-28T21:44:08.045Z,17.82
2022-09-28T21:46:36.450Z,17.79
2022-09-28T21:49:06.426Z,17.77
2022-09-28T21:51:34.146Z,17.77
2022-09-28T21:54:01.068Z,17.77
2022-09-28T21:56:28.846Z,17.79
2022-09-28T21:58:55.577Z,17.79
2022-09-28T22:01:25.458Z,17.79
2022-09-28T22:03:55.130Z,17.82
2022-09-28T22:06:24.329Z,17.83
2022-09-28T22:08:51.156Z,17.82
2022-09-28T22:11:22.800Z,17.83
2022-09-28T22:13:53.135Z,17.78
2022-09-28T22:16:22.989Z,17.76
2022-09-28T22:18:49.853Z,17.72
2022-09-28T22:21:25.025Z,17.68
2022-09-28T22:23:51.848Z,17.63
2022-09-28T22:26:20.123Z,17.61
2022-09-28T22:28:57.917Z,17.57
2022-09-28T22:31:28.304Z,17.55
2022-09-28T22:33:55.360Z,17.50
2022-09-28T22:36:21.998Z,17.45
2022-09-28T22:38:48.917Z,17.41
2022-09-28T22:41:17.529Z,17.36
2022-09-28T22:43:44.189Z,17.33
2022-09-28T22:46:12.926Z,17.30
2022-09-28T22:48:39.747Z,17.27
2022-09-28T22:51:07.158Z,17.24
2022-09-28T22:53:35.117Z,17.25
2022-09-28T22:56:04.894Z,17.25
2022-09-28T22:58:35.249Z,17.23
2022-09-28T23:01:08.993Z,17.22
2022-09-28T23:03:35.907Z,17.21
2022-09-28T23:06:03.876Z,17.21
2022-09-28T23:08:32.113Z,17.23
2022-09-28T23:10:59.449Z,17.23
2022-09-28T23:13:26.094Z,17.22
2022-09-28T23:16:01.120Z,17.23
2022-09-28T23:18:30.397Z,17.25
2022-09-28T23:20:59.444Z,17.24
2022-09-28T23:23:26.321Z,17.17
2022-09-28T23:25:53.641Z,17.11
2022-09-28T23:28:21.978Z,17.11
2022-09-28T23:30:49.135Z,17.08
2022-09-28T23:33:16.741Z,17.05
2022-09-28T23:35:44.006Z,17.03
2022-09-28T23:38:14.949Z,17.00
2022-09-28T23:40:41.853Z,17.00
2022-09-28T23:43:08.738Z,17.00
2022-09-28T23:45:35.351Z,16.97
2022-09-28T23:48:02.353Z,16.97
2022-09-28T23:50:29.324Z,16.96
2022-09-28T23:52:55.874Z,16.96
2022-09-28T23:55:22.389Z,16.98
2022-09-28T23:57:48.916Z,16.96
